createdAt,value
2022-11-20T00:02:42.512Z,22.15
2022-11-20T00:05:46.131Z,23.83
2022-11-20T00:08:49.302Z,23.25
2022-11-20T00:11:52.368Z,21.02
2022-11-20T00:14:55.673Z,18.25
2022-11-20T00:17:59.223Z,26.83
2022-11-20T00:21:06.975Z,24.33
2022-11-20T00:24:11.633Z,22.87
2022-11-20T00:27:14.423Z,23.87
2022-11-20T00:30:18.943Z,27.10
2022-11-20T00:33:21.812Z,26.98
2022-11-20T00:36:29.211Z,25.23
2022-11-20T00:39:32.115Z,24.98
2022-11-20T00:42:36.554Z,26.10
2022-11-20T00:45:39.424Z,22.58
2022-11-20T00:48:43.139Z,29.45
2022-11-20T00:51:46.092Z,31.35
2022-11-20T00:54:49.233Z,30.70
2022-11-20T00:57:52.057Z,28.42
2022-11-20T01:01:01.601Z,28.25
2022-11-20T01:04:05.483Z,28.35
2022-11-20T01:07:08.755Z,32.75
2022-11-20T01:10:11.615Z,30.50
2022-11-20T01:13:33.796Z,27.55
2022-11-20T01:16:43.144Z,28.10
2022-11-20T01:19:46.394Z,29.45
2022-11-20T01:22:49.460Z,30.40
2022-11-20T01:25:52.754Z,37.17
2022-11-20T01:28:56.612Z,29.95
2022-11-20T01:32:00.000Z,32.22
2022-11-20T01:35:02.750Z,29.08
2022-11-20T01:38:05.589Z,33.00
2022-11-20T01:41:09.483Z,33.47
2022-11-20T01:44:16.130Z,38.42
2022-11-20T01:47:27.271Z,29.25
2022-11-20T01:50:30.738Z,31.37
2022-11-20T01:53:35.485Z,29.58
2022-11-20T01:56:41.768Z,33.08
2022-11-20T01:59:54.736Z,32.35
2022-11-20T02:03:00.149Z,35.20
2022-11-20T02:06:09.386Z,33.83
2022-11-20T02:09:12.750Z,31.15
2022-11-20T02:12:35.935Z,31.12
2022-11-20T02:15:39.156Z,31.27
2022-11-20T02:18:43.326Z,30.42
2022-11-20T02:22:15.089Z,28.52
2022-11-20T02:25:19.050Z,29.67
2022-11-20T02:28:23.399Z,29.90
2022-11-20T02:31:26.596Z,33.85
2022-11-20T02:34:30.111Z,32.17
2022-11-20T02:37:35.286Z,37.13
2022-11-20T02:40:38.185Z,33.80
2022-11-20T02:43:41.491Z,28.92
2022-11-20T02:46:44.310Z,33.97
2022-11-20T02:49:47.423Z,31.30
2022-11-20T02:52:50.290Z,28.23
2022-11-20T02:55:53.623Z,30.95
2022-11-20T02:58:56.771Z,28.70
2022-11-20T03:01:59.868Z,27.52
2022-11-20T03:05:02.741Z,29.08
2022-11-20T03:08:05.985Z,26.83
2022-11-20T03:11:11.025Z,27.25
2022-11-20T03:14:14.201Z,31.52
2022-11-20T03:17:17.876Z,27.40
2022-11-20T03:20:21.113Z,28.35
2022-11-20T03:23:23.952Z,30.37
2022-11-20T03:26:28.316Z,26.30
2022-11-20T03:29:31.217Z,26.08
2022-11-20T03:32:34.424Z,25.98
2022-11-20T03:35:37.244Z,26.95
2022-11-20T03:38:41.036Z,26.50
2022-11-20T03:41:44.514Z,27.65
2022-11-20T03:44:47.674Z,24.77
2022-11-20T03:47:50.525Z,25.62
2022-11-20T03:50:54.744Z,27.33
2022-11-20T03:53:59.648Z,23.33
2022-11-20T03:57:04.346Z,23.70
2022-11-20T04:00:07.775Z,23.12
2022-11-20T04:03:11.630Z,22.00
2022-11-20T04:06:18.321Z,19.17
2022-11-20T04:09:23.161Z,23.42
2022-11-20T04:12:26.380Z,22.30
2022-11-20T04:15:32.314Z,22.50
2022-11-20T04:18:37.421Z,20.83
2022-11-20T04:21:41.029Z,24.95
2022-11-20T04:24:43.876Z,25.75
2022-11-20T04:27:47.041Z,30.00
2022-11-20T04:30:50.323Z,28.58
2022-11-20T04:33:53.619Z,25.42
2022-11-20T04:36:56.436Z,31.73
2022-11-20T04:39:59.602Z,26.08
2022-11-20T04:43:02.603Z,24.17
2022-11-20T04:46:05.929Z,25.85
2022-11-20T04:49:09.884Z,27.90
2022-11-20T04:52:13.028Z,28.55
2022-11-20T04:55:16.170Z,24.20
2022-11-20T04:58:19.327Z,26.62
2022-11-20T05:01:23.978Z,29.23
2022-11-20T05:04:27.459Z,22.80
2022-11-20T05:07:30.530Z,22.42
2022-11-20T05:10:33.738Z,22.50
2022-11-20T05:13:36.992Z,24.08
2022-11-20T05:16:40.440Z,26.40
2022-11-20T05:19:43.287Z,25.45
2022-11-20T05:22:46.832Z,24.12
2022-11-20T05:25:52.363Z,29.37
2022-11-20T05:28:59.179Z,23.90
2022-11-20T05:32:02.032Z,23.80
2022-11-20T05:35:05.527Z,23.92
2022-11-20T05:38:08.831Z,31.02
2022-11-20T05:41:19.903Z,23.90
2022-11-20T05:44:22.773Z,23.05
2022-11-20T05:47:26.883Z,21.95
2022-11-20T05:50:31.260Z,25.27
2022-11-20T05:53:36.356Z,23.00
2022-11-20T05:56:39.654Z,23.27
2022-11-20T05:59:43.706Z,21.37
2022-11-20T06:02:46.655Z,24.25
2022-11-20T06:05:49.844Z,22.60
2022-11-20T06:08:52.761Z,25.40
2022-11-20T06:11:56.133Z,22.35
2022-11-20T06:15:00.612Z,26.27
2022-11-20T06:18:03.835Z,26.73
2022-11-20T06:21:08.325Z,24.70
2022-11-20T06:24:12.283Z,26.37
2022-11-20T06:27:15.164Z,28.67
2022-11-20T06:30:18.455Z,27.13
2022-11-20T06:33:21.390Z,26.70
2022-11-20T06:36:25.345Z,25.75
2022-11-20T06:39:28.142Z,28.45
2022-11-20T06:42:31.541Z,24.58
2022-11-20T06:45:34.419Z,26.60
2022-11-20T06:48:37.513Z,22.80
2022-11-20T06:51:40.366Z,25.15
2022-11-20T06:54:44.020Z,26.48
2022-11-20T06:57:48.757Z,26.70
2022-11-20T07:00:53.947Z,21.33
2022-11-20T07:03:56.863Z,26.75
2022-11-20T07:06:59.990Z,27.45
2022-11-20T07:10:02.930Z,33.33
2022-11-20T07:13:06.124Z,54.20
2022-11-20T07:16:09.567Z,27.60
2022-11-20T07:19:12.809Z,28.35
2022-11-20T07:22:15.661Z,28.42
2022-11-20T07:25:19.391Z,31.33
2022-11-20T07:28:22.498Z,40.83
2022-11-20T07:31:25.681Z,32.45
2022-11-20T07:34:28.772Z,29.77
2022-11-20T07:37:32.142Z,29.00
2022-11-20T07:40:34.973Z,39.47
2022-11-20T07:43:41.280Z,30.67
2022-11-20T07:46:44.852Z,30.60
2022-11-20T07:49:48.303Z,28.83
2022-11-20T07:52:51.720Z,33.15
2022-11-20T07:55:55.034Z,34.60
2022-11-20T07:58:57.855Z,34.83
2022-11-20T08:02:01.050Z,32.30
2022-11-20T08:05:05.889Z,26.05
2022-11-20T08:08:09.097Z,27.70
2022-11-20T08:11:31.552Z,30.20
2022-11-20T08:14:34.711Z,35.80
2022-11-20T08:17:38.083Z,34.72
2022-11-20T08:20:41.067Z,38.45
2022-11-20T08:23:44.333Z,44.90
2022-11-20T08:26:47.593Z,33.28
2022-11-20T08:29:51.122Z,33.67
2022-11-20T08:32:54.707Z,31.25
2022-11-20T08:36:02.254Z,32.55
2022-11-20T08:39:05.338Z,36.35
2022-11-20T08:42:09.785Z,32.03
2022-11-20T08:45:12.778Z,31.65
2022-11-20T08:48:16.510Z,29.63
2022-11-20T08:51:20.062Z,27.65
2022-11-20T08:54:23.832Z,25.17
2022-11-20T08:57:26.636Z,26.73
2022-11-20T09:00:29.912Z,30.27
2022-11-20T09:03:33.175Z,31.83
2022-11-20T09:06:36.249Z,26.23
2022-11-20T09:09:39.067Z,27.30
2022-11-20T09:12:42.161Z,31.23
2022-11-20T09:15:45.271Z,28.15
2022-11-20T09:19:07.200Z,30.27
2022-11-20T09:22:14.401Z,26.45
2022-11-20T09:25:17.713Z,32.45
2022-11-20T09:28:20.558Z,24.50
2022-11-20T09:31:25.164Z,26.98
2022-11-20T09:34:28.188Z,27.90
2022-11-20T09:37:31.542Z,31.00
2022-11-20T09:40:36.164Z,32.47
2022-11-20T09:44:04.057Z,29.27
2022-11-20T09:47:12.675Z,29.37
2022-11-20T09:50:26.642Z,27.50
2022-11-20T09:53:58.311Z,30.05
2022-11-20T09:57:05.003Z,31.02
2022-11-20T10:00:14.410Z,24.48
2022-11-20T10:03:36.504Z,26.73
2022-11-20T10:06:51.988Z,32.08
2022-11-20T10:10:02.758Z,29.95
2022-11-20T10:13:11.814Z,30.37
2022-11-20T10:16:34.451Z,26.87
2022-11-20T10:20:11.955Z,28.17
2022-11-20T10:23:33.801Z,39.37
2022-11-20T10:26:46.240Z,31.65
2022-11-20T10:30:04.681Z,30.05
2022-11-20T10:33:17.307Z,27.73
2022-11-20T10:36:26.228Z,31.12
2022-11-20T10:39:47.722Z,31.33
2022-11-20T10:42:57.227Z,33.03
2022-11-20T10:46:04.886Z,29.92
2022-11-20T10:49:17.154Z,32.70
2022-11-20T10:52:43.121Z,27.73
2022-11-20T10:56:07.275Z,28.17
2022-11-20T10:59:36.464Z,29.60
2022-11-20T11:02:54.265Z,27.58
2022-11-20T11:06:42.304Z,22.80
2022-11-20T11:09:50.905Z,28.52
2022-11-20T11:12:53.796Z,25.10
2022-11-20T11:15:57.617Z,25.83
2022-11-20T11:19:07.717Z,27.25
2022-11-20T11:22:18.341Z,26.67
2022-11-20T11:25:34.918Z,25.75
2022-11-20T11:28:37.962Z,27.85
2022-11-20T11:31:40.899Z,27.92
2022-11-20T11:34:44.484Z,24.40
2022-11-20T11:37:52.129Z,28.20
2022-11-20T11:40:57.496Z,24.80
2022-11-20T11:44:24.646Z,26.45
2022-11-20T11:47:35.044Z,27.27
2022-11-20T11:50:37.914Z,23.45
2022-11-20T11:53:42.978Z,29.35
2022-11-20T11:56:47.114Z,24.00
2022-11-20T12:00:10.664Z,30.92
2022-11-20T12:03:45.628Z,27.10
2022-11-20T12:06:55.799Z,26.52
2022-11-20T12:10:01.278Z,27.70
2022-11-20T12:13:14.117Z,26.73
2022-11-20T12:16:20.660Z,31.10
2022-11-20T12:19:23.647Z,27.73
2022-11-20T12:22:51.948Z,27.37
2022-11-20T12:25:58.543Z,27.83
2022-11-20T12:29:31.310Z,30.90
2022-11-20T12:33:07.153Z,25.00
2022-11-20T12:36:33.235Z,29.80
2022-11-20T12:39:41.266Z,30.27
2022-11-20T12:43:17.840Z,30.08
2022-11-20T12:49:43.535Z,26.67
2022-11-20T12:53:21.408Z,30.40
2022-11-20T12:56:40.973Z,30.58
2022-11-20T13:00:12.050Z,26.45
2022-11-20T13:03:27.401Z,34.17
2022-11-20T13:06:30.754Z,29.97
2022-11-20T13:09:35.773Z,31.92
2022-11-20T13:12:47.165Z,33.33
2022-11-20T13:15:56.198Z,32.38
2022-11-20T13:19:03.946Z,37.90
2022-11-20T13:22:10.352Z,26.23
2022-11-20T13:25:35.384Z,36.38
2022-11-20T13:28:39.139Z,34.40
2022-11-20T13:31:45.793Z,31.73
2022-11-20T13:35:01.660Z,34.65
2022-11-20T13:38:13.576Z,31.70
2022-11-20T13:41:44.218Z,29.70
2022-11-20T13:44:56.406Z,30.65
2022-11-20T13:48:06.633Z,31.92
2022-11-20T13:51:28.427Z,32.30
2022-11-20T13:54:45.183Z,33.30
2022-11-20T13:57:57.045Z,35.47
2022-11-20T14:01:12.013Z,34.55
2022-11-20T14:04:23.231Z,35.33
2022-11-20T14:07:33.296Z,33.33
2022-11-20T14:10:42.333Z,32.97
2022-11-20T14:14:17.953Z,31.08
2022-11-20T14:17:25.524Z,33.53
2022-11-20T14:20:33.740Z,34.50
2022-11-20T14:23:37.221Z,28.58
2022-11-20T14:26:47.545Z,33.95
2022-11-20T14:29:51.856Z,31.15
2022-11-20T14:32:57.981Z,28.83
2022-11-20T14:36:01.697Z,29.58
2022-11-20T14:39:04.605Z,31.90
2022-11-20T14:42:39.480Z,34.47
2022-11-20T14:45:42.819Z,31.77
2022-11-20T14:48:50.791Z,32.70
2022-11-20T14:52:01.576Z,34.03
2022-11-20T14:55:05.312Z,31.17
2022-11-20T14:58:30.147Z,31.70
2022-11-20T15:01:35.206Z,35.57
2022-11-20T15:04:52.626Z,30.73
2022-11-20T15:08:16.744Z,35.42
2022-11-20T15:11:22.172Z,43.33
2022-11-20T15:14:27.062Z,39.75
2022-11-20T15:17:32.131Z,37.63
2022-11-20T15:23:38.565Z,37.10
2022-11-20T15:26:41.866Z,36.33
2022-11-20T15:29:44.980Z,40.40
2022-11-20T15:32:49.151Z,36.42
2022-11-20T15:35:52.446Z,42.60
2022-11-20T15:38:56.418Z,44.08
2022-11-20T15:41:59.719Z,39.85
2022-11-20T15:45:06.553Z,32.88
2022-11-20T15:48:13.276Z,36.67
2022-11-20T15:51:17.094Z,40.85
2022-11-20T15:54:22.630Z,46.70
2022-11-20T15:57:28.751Z,41.35
2022-11-20T16:00:32.358Z,38.25
2022-11-20T16:03:37.191Z,45.47
2022-11-20T16:06:40.835Z,40.27
2022-11-20T16:09:44.436Z,41.25
2022-11-20T16:13:06.417Z,44.97
2022-11-20T16:16:21.172Z,55.08
2022-11-20T16:19:24.367Z,52.92
2022-11-20T16:22:27.761Z,50.50
2022-11-20T16:25:31.075Z,48.17
2022-11-20T16:28:35.556Z,39.90
2022-11-20T16:31:39.389Z,42.65
2022-11-20T16:34:43.646Z,39.10
2022-11-20T16:37:47.463Z,45.58
2022-11-20T16:40:54.490Z,36.83
2022-11-20T16:44:01.128Z,39.35
2022-11-20T16:47:04.678Z,37.42
2022-11-20T16:50:08.126Z,35.67
2022-11-20T16:53:11.345Z,46.88
2022-11-20T16:56:20.360Z,42.22
2022-11-20T16:59:23.654Z,42.13
2022-11-20T17:02:27.016Z,39.25
2022-11-20T17:05:31.024Z,44.10
2022-11-20T17:08:35.496Z,54.22
2022-11-20T17:11:44.999Z,45.38
2022-11-20T17:14:51.542Z,44.35
2022-11-20T17:17:55.108Z,35.15
2022-11-20T17:21:00.996Z,39.53
2022-11-20T17:24:07.004Z,40.65
2022-11-20T17:27:11.107Z,44.10
2022-11-20T17:30:15.475Z,37.17
2022-11-20T17:33:20.219Z,36.05
2022-11-20T17:36:23.923Z,41.53
2022-11-20T17:39:27.274Z,42.22
2022-11-20T17:42:37.168Z,33.97
2022-11-20T17:45:40.403Z,34.17
2022-11-20T17:48:45.825Z,36.67
2022-11-20T17:54:56.440Z,33.40
2022-11-20T17:58:02.918Z,34.58
2022-11-20T18:01:08.392Z,35.53
2022-11-20T18:04:13.744Z,40.45
2022-11-20T18:10:21.434Z,40.17
2022-11-20T18:13:47.920Z,38.83
2022-11-20T18:16:54.041Z,40.05
2022-11-20T18:20:26.768Z,34.22
2022-11-20T18:23:21.351Z,39.15
2022-11-20T18:26:27.412Z,42.95
2022-11-20T18:29:32.653Z,40.97
2022-11-20T18:32:37.990Z,38.50
2022-11-20T18:35:43.768Z,41.05
2022-11-20T18:38:51.000Z,35.37
2022-11-20T18:42:14.118Z,37.15
2022-11-20T18:45:18.905Z,39.25
2022-11-20T18:48:22.163Z,34.60
2022-11-20T18:51:28.271Z,35.75
2022-11-20T18:54:32.745Z,40.40
2022-11-20T18:57:36.120Z,35.03
2022-11-20T19:00:39.784Z,37.58
2022-11-20T19:06:57.788Z,40.12
2022-11-20T19:10:03.916Z,39.22
2022-11-20T19:13:08.794Z,35.05
2022-11-20T19:16:22.805Z,41.15
2022-11-20T19:19:27.475Z,40.38
2022-11-20T19:22:31.051Z,36.10
2022-11-20T19:25:38.200Z,44.65
2022-11-20T19:28:41.887Z,40.05
2022-11-20T19:31:46.317Z,39.67
2022-11-20T19:34:49.673Z,38.75
2022-11-20T19:37:53.511Z,41.35
2022-11-20T19:40:56.456Z,42.33
2022-11-20T19:44:02.527Z,45.00
2022-11-20T19:47:11.566Z,36.35
2022-11-20T19:50:17.936Z,39.30
2022-11-20T19:53:21.352Z,36.20
2022-11-20T19:56:26.084Z,37.53
2022-11-20T19:59:29.497Z,42.28
2022-11-20T20:02:33.265Z,36.53
2022-11-20T20:05:36.892Z,44.47
2022-11-20T20:08:40.388Z,45.92
2022-11-20T20:11:46.342Z,42.30
2022-11-20T20:14:49.880Z,35.95
2022-11-20T20:17:53.881Z,39.53
2022-11-20T20:21:02.385Z,39.47
2022-11-20T20:24:07.393Z,41.72
2022-11-20T20:27:10.768Z,41.70
2022-11-20T20:30:13.989Z,34.80
2022-11-20T20:33:18.312Z,38.85
2022-11-20T20:36:24.088Z,38.20
2022-11-20T20:39:29.776Z,43.78
2022-11-20T20:42:36.581Z,45.63
2022-11-20T20:45:48.425Z,45.65
2022-11-20T20:48:54.617Z,40.58
2022-11-20T20:51:58.311Z,40.12
2022-11-20T20:55:01.982Z,51.25
2022-11-20T20:58:05.567Z,49.88
2022-11-20T21:01:15.443Z,49.15
2022-11-20T21:04:18.388Z,49.47
2022-11-20T21:07:21.558Z,52.30
2022-11-20T21:10:25.403Z,50.35
2022-11-20T21:13:30.711Z,47.78
2022-11-20T21:16:41.466Z,43.97
2022-11-20T21:19:45.414Z,44.65
2022-11-20T21:22:48.560Z,48.90
2022-11-20T21:25:53.039Z,47.65
2022-11-20T21:28:58.722Z,42.65
2022-11-20T21:32:02.438Z,42.85
2022-11-20T21:35:06.420Z,42.20
2022-11-20T21:38:10.171Z,47.10
2022-11-20T21:41:14.371Z,42.75
2022-11-20T21:44:31.016Z,43.90
2022-11-20T21:47:34.779Z,43.15
2022-11-20T21:50:38.399Z,45.65
2022-11-20T21:53:41.408Z,48.15
2022-11-20T21:56:45.425Z,39.33
2022-11-20T21:59:48.243Z,39.17
2022-11-20T22:02:52.550Z,42.25
2022-11-20T22:05:56.860Z,45.80
2022-11-20T22:09:00.618Z,45.95
2022-11-20T22:12:03.950Z,40.75
2022-11-20T22:15:07.229Z,39.83
2022-11-20T22:18:13.205Z,39.63
2022-11-20T22:21:17.740Z,43.17
2022-11-20T22:24:22.408Z,43.60
2022-11-20T22:27:25.588Z,41.53
2022-11-20T22:30:29.200Z,50.05
2022-11-20T22:33:33.317Z,45.63
2022-11-20T22:36:37.269Z,43.47
2022-11-20T22:39:40.142Z,40.80
2022-11-20T22:42:46.765Z,67.70
2022-11-20T22:45:49.805Z,68.70
2022-11-20T22:48:56.410Z,60.65
2022-11-20T22:52:00.138Z,62.22
2022-11-20T22:55:03.222Z,47.22
2022-11-20T22:58:06.830Z,47.08
2022-11-20T23:01:14.269Z,49.85
2022-11-20T23:04:18.060Z,47.05
2022-11-20T23:07:21.483Z,52.47
2022-11-20T23:10:24.418Z,45.03
2022-11-20T23:13:28.222Z,61.50
2022-11-20T23:16:32.046Z,45.80
2022-11-20T23:19:35.216Z,42.65
2022-11-20T23:22:38.042Z,52.05
2022-11-20T23:25:41.517Z,48.83
2022-11-20T23:28:44.790Z,66.95
2022-11-20T23:31:48.053Z,53.30
2022-11-20T23:34:51.372Z,50.10
2022-11-20T23:37:54.546Z,47.08
2022-11-20T23:40:58.733Z,50.08
2022-11-20T23:44:01.961Z,43.87
2022-11-20T23:47:06.232Z,42.15
2022-11-20T23:50:09.441Z,54.53
2022-11-20T23:53:14.521Z,48.58
2022-11-20T23:59:20.310Z,56.95
